Time;durP1;ratioP1;P1;durP2;ratioP2;P2;SDS_P1;SDS_P2;PMS_P1;PMS_P2;Temp;Humidity;BMP_temperature;BMP_pressure;BME280_temperature;BME280_humidity;BME280_pressure;Samples;Min_cycle;Max_cycle;Signal;HPM_P1;HPM_P2
2022/11/20 00:02:22;;;;;;;23.93;12.90;;;-0.90;99.90;;;;;;5013311;28;20188;-81
2022/11/20 00:04:49;;;;;;;22.57;12.87;;;-0.90;99.90;;;;;;5013077;28;20301;-81
2022/11/20 00:07:14;;;;;;;23.13;12.33;;;-0.90;99.90;;;;;;5014166;28;20216;-81
2022/11/20 00:09:40;;;;;;;24.17;13.03;;;-1.00;99.90;;;;;;5012942;28;20203;-81
2022/11/20 00:12:05;;;;;;;22.73;12.53;;;-1.00;99.90;;;;;;5012853;28;20181;-83
2022/11/20 00:14:31;;;;;;;25.67;13.53;;;-0.90;99.90;;;;;;5012702;28;20231;-82
2022/11/20 00:16:57;;;;;;;22.20;12.53;;;-0.90;99.90;;;;;;5014055;28;20182;-81
2022/11/20 00:19:22;;;;;;;23.50;13.07;;;-0.90;99.90;;;;;;5014138;28;20182;-82
2022/11/20 00:21:51;;;;;;;23.17;12.13;;;-0.80;99.90;;;;;;5012800;28;20234;-83
2022/11/20 00:24:16;;;;;;;22.93;12.47;;;-0.80;99.90;;;;;;5013766;28;20563;-81
2022/11/20 00:26:42;;;;;;;24.07;12.53;;;-0.80;99.90;;;;;;5012366;28;20175;-78
2022/11/20 00:29:10;;;;;;;23.63;12.87;;;-0.90;99.90;;;;;;5012475;28;20170;-81
2022/11/20 00:31:35;;;;;;;23.40;12.80;;;-0.90;99.90;;;;;;5012625;28;20177;-81
2022/11/20 00:34:01;;;;;;;24.77;12.80;;;-0.90;99.90;;;;;;5013988;28;20217;-81
2022/11/20 00:36:28;;;;;;;21.40;12.10;;;-0.80;99.90;;;;;;5013659;28;20181;-81
2022/11/20 00:38:56;;;;;;;22.83;12.80;;;-0.80;99.90;;;;;;5013660;28;20185;-82
2022/11/20 00:41:22;;;;;;;24.23;13.17;;;-0.80;99.90;;;;;;5013615;28;20180;-82
2022/11/20 00:43:48;;;;;;;22.83;13.07;;;-0.80;99.90;;;;;;5024433;23;20234;-80
2022/11/20 00:46:19;;;;;;;21.27;12.67;;;-0.90;99.90;;;;;;4994929;28;20175;-80
2022/11/20 00:48:45;;;;;;;29.47;14.03;;;-0.90;99.90;;;;;;4994177;28;20187;-80
2022/11/20 00:51:16;;;;;;;28.10;14.30;;;-0.90;99.90;;;;;;4993412;28;20178;-81
2022/11/20 00:53:42;;;;;;;25.83;13.40;;;-0.90;99.90;;;;;;4993565;28;20196;-80
2022/11/20 00:56:11;;;;;;;25.70;13.80;;;-0.90;99.90;;;;;;4992586;28;20175;-80
2022/11/20 00:58:39;;;;;;;26.67;14.10;;;-0.80;99.90;;;;;;4992635;28;20278;-80
2022/11/20 01:01:10;;;;;;;27.63;13.67;;;-0.80;99.90;;;;;;4994741;28;20642;-80
2022/11/20 01:03:42;;;;;;;24.63;13.30;;;-0.70;99.90;;;;;;4994230;28;20193;-80
2022/11/20 01:06:14;;;;;;;27.63;14.00;;;-0.80;99.90;;;;;;4994458;28;20181;-80
2022/11/20 01:08:40;;;;;;;25.60;12.93;;;-0.90;99.90;;;;;;4994199;28;20197;-80
2022/11/20 01:11:10;;;;;;;25.67;13.53;;;-1.00;99.90;;;;;;4994158;28;20197;-80
2022/11/20 01:13:37;;;;;;;25.03;14.27;;;-1.10;99.90;;;;;;4991929;28;20194;-80
2022/11/20 01:16:13;;;;;;;24.70;12.93;;;-1.10;99.90;;;;;;4992886;28;20177;-80
2022/11/20 01:18:42;;;;;;;24.67;12.60;;;-1.20;99.90;;;;;;4992643;28;20222;-80
2022/11/20 01:21:11;;;;;;;25.00;12.87;;;-1.10;99.90;;;;;;4994502;28;20182;-80
2022/11/20 01:23:39;;;;;;;26.13;13.43;;;-1.20;99.90;;;;;;4993837;28;20743;-81
2022/11/20 01:26:07;;;;;;;23.57;12.60;;;-1.10;99.90;;;;;;4992789;28;20173;-80
2022/11/20 01:28:34;;;;;;;22.63;12.57;;;-1.00;99.90;;;;;;4992757;28;20582;-80
2022/11/20 01:31:00;;;;;;;23.07;12.10;;;-1.00;99.90;;;;;;4992843;28;20185;-80
2022/11/20 01:33:26;;;;;;;23.90;13.03;;;-0.90;99.90;;;;;;4992812;28;20244;-80
2022/11/20 01:35:52;;;;;;;22.57;12.57;;;-0.90;99.90;;;;;;4993821;28;20268;-80
2022/11/20 01:38:19;;;;;;;25.20;13.27;;;-0.90;99.90;;;;;;4992496;28;20181;-81
2022/11/20 01:40:53;;;;;;;24.17;12.47;;;-0.80;99.90;;;;;;4992560;28;20178;-80
2022/11/20 01:43:20;;;;;;;22.33;12.43;;;-0.80;99.90;;;;;;4993409;28;20186;-80
2022/11/20 01:46:04;;;;;;;23.07;12.07;;;-0.80;99.90;;;;;;4993280;28;20205;-80
2022/11/20 01:48:38;;;;;;;24.50;12.77;;;-0.80;99.90;;;;;;4993412;28;20220;-80
2022/11/20 01:51:06;;;;;;;21.77;11.73;;;-0.80;99.90;;;;;;4993589;28;20184;-80
2022/11/20 01:53:36;;;;;;;21.30;12.23;;;-0.80;99.90;;;;;;4992371;28;20201;-81
2022/11/20 01:56:05;;;;;;;21.47;11.83;;;-0.80;99.90;;;;;;4993075;28;20178;-79
2022/11/20 01:58:35;;;;;;;20.60;11.57;;;-0.70;99.90;;;;;;4993218;28;20166;-80
2022/11/20 02:01:02;;;;;;;20.63;11.17;;;-0.60;99.90;;;;;;4991808;28;20170;-80
2022/11/20 02:03:28;;;;;;;23.33;11.50;;;-0.60;99.90;;;;;;4993149;28;20237;-80
2022/11/20 02:06:19;;;;;;;22.47;11.70;;;-0.60;99.90;;;;;;4991907;28;20210;-81
2022/11/20 02:08:44;;;;;;;22.77;12.27;;;-0.50;99.90;;;;;;4995686;28;20186;-81
2022/11/20 02:11:10;;;;;;;22.27;12.30;;;-0.50;99.90;;;;;;4995937;28;20171;-80
2022/11/20 02:13:45;;;;;;;20.57;11.30;;;-0.60;99.90;;;;;;4995706;28;20237;-80
2022/11/20 02:16:16;;;;;;;18.27;10.57;;;-0.70;99.90;;;;;;4995971;28;20174;-80
2022/11/20 02:18:43;;;;;;;19.13;10.90;;;-0.70;99.90;;;;;;4996911;28;20171;-80
2022/11/20 02:21:21;;;;;;;20.33;10.63;;;-0.60;99.90;;;;;;4995852;28;20181;-80
2022/11/20 02:24:08;;;;;;;19.73;10.63;;;-0.50;99.90;;;;;;4995368;28;20195;-80
2022/11/20 02:26:54;;;;;;;19.57;10.37;;;-0.40;99.90;;;;;;4995921;28;20184;-80
2022/11/20 02:29:25;;;;;;;21.87;11.53;;;-0.40;99.90;;;;;;4995833;28;20185;-80
2022/11/20 02:31:53;;;;;;;20.77;11.60;;;-0.40;99.90;;;;;;4996774;28;20171;-80
2022/11/20 02:34:19;;;;;;;21.40;11.53;;;-0.30;99.90;;;;;;4996455;28;20198;-80
2022/11/20 02:36:45;;;;;;;20.20;11.27;;;-0.40;99.90;;;;;;4995500;28;20695;-79
2022/11/20 02:39:13;;;;;;;20.63;11.30;;;-0.40;99.90;;;;;;4996716;28;20187;-80
2022/11/20 02:41:39;;;;;;;21.70;11.87;;;-0.40;99.90;;;;;;4996525;28;20237;-80
2022/11/20 02:44:05;;;;;;;21.43;11.40;;;-0.40;99.90;;;;;;4996535;28;20253;-81
2022/11/20 02:46:32;;;;;;;22.63;11.60;;;-0.30;99.90;;;;;;4995018;28;20186;-80
2022/11/20 02:48:58;;;;;;;20.30;10.90;;;-0.40;99.90;;;;;;4995050;28;20183;-81
2022/11/20 02:51:23;;;;;;;20.53;11.73;;;-0.40;99.90;;;;;;4995081;28;20298;-81
2022/11/20 02:53:49;;;;;;;20.10;11.33;;;-0.40;99.90;;;;;;4995069;28;20191;-81
2022/11/20 02:56:15;;;;;;;20.43;11.60;;;-0.40;99.90;;;;;;4996278;28;20200;-80
2022/11/20 02:58:41;;;;;;;21.87;11.20;;;-0.40;99.90;;;;;;4995188;28;20183;-81
2022/11/20 03:01:06;;;;;;;23.33;11.93;;;-0.30;99.90;;;;;;4996294;28;20189;-81
2022/11/20 03:03:32;;;;;;;20.35;11.05;;;-0.30;99.90;;;;;;4994857;28;20242;-80
2022/11/20 03:05:59;;;;;;;19.33;11.20;;;-0.40;99.90;;;;;;4995269;28;20977;-80
2022/11/20 03:08:25;;;;;;;21.30;11.37;;;-0.30;99.90;;;;;;4994579;28;20180;-81
2022/11/20 03:10:50;;;;;;;18.17;10.47;;;-0.30;99.90;;;;;;4994693;28;20232;-80
2022/11/20 03:13:16;;;;;;;20.63;10.63;;;-0.40;99.90;;;;;;4994767;28;20178;-80
2022/11/20 03:15:41;;;;;;;20.10;10.43;;;-0.40;99.90;;;;;;4994671;28;20211;-81
2022/11/20 03:18:07;;;;;;;17.17;9.73;;;-0.40;99.90;;;;;;4995237;28;20178;-81
2022/11/20 03:20:33;;;;;;;19.23;10.60;;;-0.40;99.90;;;;;;4995684;28;20788;-80
2022/11/20 03:22:59;;;;;;;19.43;10.70;;;-0.40;99.90;;;;;;4995650;28;20170;-80
2022/11/20 03:25:25;;;;;;;18.33;10.27;;;-0.40;99.90;;;;;;4994502;28;20273;-80
2022/11/20 03:27:50;;;;;;;19.20;10.53;;;-0.50;99.90;;;;;;4994289;28;20269;-80
2022/11/20 03:30:16;;;;;;;20.30;10.40;;;-0.40;99.90;;;;;;4990963;28;20222;-81
2022/11/20 03:32:42;;;;;;;18.40;10.40;;;-0.40;99.90;;;;;;4995428;28;20197;-81
2022/11/20 03:35:08;;;;;;;18.80;11.13;;;-0.30;99.90;;;;;;4995630;28;20209;-80
2022/11/20 03:37:33;;;;;;;17.90;10.53;;;-0.30;99.90;;;;;;4993872;28;20264;-81
2022/11/20 03:39:59;;;;;;;19.07;10.90;;;-0.30;99.90;;;;;;4995508;28;20215;-81
2022/11/20 03:45:08;;;;;;;19.70;10.97;;;-0.20;99.90;;;;;;4995444;28;20221;-81
2022/11/20 03:47:34;;;;;;;20.77;11.37;;;-0.10;99.90;;;;;;4993845;28;20179;-80
2022/11/20 03:49:59;;;;;;;21.33;12.27;;;-0.10;99.90;;;;;;4994236;28;20180;-81
2022/11/20 03:52:25;;;;;;;19.97;11.77;;;-0.30;99.90;;;;;;4995229;28;20190;-81
2022/11/20 03:54:50;;;;;;;19.63;11.17;;;-0.40;99.90;;;;;;4993950;28;20227;-81
2022/11/20 03:57:16;;;;;;;20.73;11.40;;;-0.40;99.90;;;;;;4993814;28;20275;-81
2022/11/20 03:59:42;;;;;;;23.10;12.07;;;-0.40;99.90;;;;;;4993884;28;20205;-80
2022/11/20 04:02:07;;;;;;;20.07;11.03;;;-0.50;99.90;;;;;;4990373;28;20184;-81
2022/11/20 04:04:33;;;;;;;20.30;11.70;;;-0.40;99.90;;;;;;4992524;28;20217;-81
2022/11/20 04:06:58;;;;;;;23.27;12.23;;;-0.40;99.90;;;;;;4994776;28;20188;-80
2022/11/20 04:09:24;;;;;;;19.17;11.83;;;-0.40;99.90;;;;;;4993844;28;20697;-80
2022/11/20 04:11:49;;;;;;;23.60;11.93;;;-0.40;99.90;;;;;;4993827;28;20552;-81
2022/11/20 04:14:16;;;;;;;19.87;11.37;;;-0.40;99.90;;;;;;4994809;28;20279;-81
2022/11/20 04:16:42;;;;;;;20.60;11.33;;;-0.30;99.90;;;;;;4993876;28;20266;-80
2022/11/20 04:19:13;;;;;;;21.53;11.60;;;-0.20;99.90;;;;;;4993734;28;20187;-81
2022/11/20 04:21:39;;;;;;;21.40;11.77;;;-0.20;99.90;;;;;;4994510;28;20238;-81
2022/11/20 04:24:05;;;;;;;22.03;11.93;;;-0.20;99.90;;;;;;4994546;28;20210;-81
2022/11/20 04:26:31;;;;;;;19.27;10.23;;;-0.20;99.90;;;;;;4994373;28;20206;-81
2022/11/20 04:28:57;;;;;;;19.63;10.80;;;-0.10;99.90;;;;;;4994284;28;20242;-81
2022/11/20 04:31:25;;;;;;;19.13;10.40;;;-0.10;99.90;;;;;;4993455;28;20176;-81
2022/11/20 04:33:51;;;;;;;16.43;9.83;;;0.00;99.90;;;;;;4994460;28;20209;-81
2022/11/20 04:36:22;;;;;;;17.13;9.63;;;0.00;99.90;;;;;;4993178;28;20170;-81
2022/11/20 04:38:59;;;;;;;19.10;10.23;;;0.00;99.90;;;;;;4993005;28;20183;-81
2022/11/20 04:41:29;;;;;;;17.90;9.97;;;0.10;99.90;;;;;;4992846;28;20688;-80
2022/11/20 04:43:59;;;;;;;18.13;10.37;;;0.10;99.90;;;;;;4993783;28;20199;-81
2022/11/20 04:46:26;;;;;;;18.93;10.30;;;0.10;99.90;;;;;;4992830;28;20179;-80
2022/11/20 04:48:52;;;;;;;19.27;10.63;;;0.00;99.90;;;;;;4992369;28;20174;-81
2022/11/20 04:51:18;;;;;;;21.93;10.90;;;0.00;99.90;;;;;;4992684;28;20175;-81
2022/11/20 04:53:43;;;;;;;20.00;10.30;;;0.00;99.90;;;;;;4992687;28;20203;-81
2022/11/20 04:56:11;;;;;;;17.87;10.47;;;0.10;99.90;;;;;;4993689;28;20171;-81
2022/11/20 04:58:37;;;;;;;20.47;11.20;;;0.10;99.90;;;;;;4993648;28;20179;-81
2022/11/20 05:01:12;;;;;;;20.43;11.77;;;0.00;99.90;;;;;;4992658;28;20179;-81
2022/11/20 05:03:39;;;;;;;18.20;10.30;;;0.00;99.90;;;;;;4992354;28;20187;-81
2022/11/20 05:06:06;;;;;;;18.17;10.97;;;0.00;99.90;;;;;;4992674;28;20642;-81
2022/11/20 05:08:33;;;;;;;19.57;10.57;;;0.10;99.90;;;;;;4992202;28;20190;-81
2022/11/20 05:11:19;;;;;;;19.73;11.23;;;0.20;99.90;;;;;;4992590;28;20172;-81
2022/11/20 05:13:45;;;;;;;19.87;10.53;;;0.10;99.90;;;;;;4993886;28;20195;-81
2022/11/20 05:16:17;;;;;;;20.13;11.27;;;0.10;99.90;;;;;;4992574;28;20258;-81
2022/11/20 05:18:43;;;;;;;21.13;11.67;;;0.20;99.90;;;;;;4993253;28;20179;-81
2022/11/20 05:21:10;;;;;;;19.63;10.90;;;0.10;99.90;;;;;;4992681;28;20178;-81
2022/11/20 05:23:36;;;;;;;18.83;11.07;;;0.00;99.90;;;;;;4993486;28;20706;-81
2022/11/20 05:26:02;;;;;;;21.87;11.27;;;0.00;99.90;;;;;;4992686;28;20207;-81
2022/11/20 05:28:29;;;;;;;19.23;11.33;;;0.00;99.90;;;;;;4992075;28;20167;-81
2022/11/20 05:30:55;;;;;;;19.43;11.20;;;0.00;99.90;;;;;;4992244;28;20182;-83
2022/11/20 05:33:21;;;;;;;18.97;10.37;;;0.00;99.90;;;;;;4993279;28;20175;-81
2022/11/20 05:35:47;;;;;;;19.67;10.73;;;0.00;99.90;;;;;;4992314;28;20180;-81
2022/11/20 05:38:13;;;;;;;20.60;11.50;;;0.00;99.90;;;;;;4992254;28;20183;-81
2022/11/20 05:40:39;;;;;;;21.60;11.43;;;0.00;99.90;;;;;;4992425;28;20180;-82
2022/11/20 05:43:04;;;;;;;21.03;12.10;;;-0.10;99.90;;;;;;4991872;28;20205;-81
2022/11/20 05:45:30;;;;;;;20.07;11.40;;;0.00;99.90;;;;;;4991886;28;20215;-81
2022/11/20 05:48:00;;;;;;;19.87;11.70;;;0.00;99.90;;;;;;4992068;28;20172;-81
2022/11/20 05:50:26;;;;;;;19.80;11.20;;;0.10;99.90;;;;;;4993459;28;20183;-81
2022/11/20 05:52:51;;;;;;;20.83;11.40;;;0.10;99.90;;;;;;4992210;28;20245;-82
2022/11/20 05:55:17;;;;;;;21.60;11.73;;;0.20;99.90;;;;;;4992562;28;20669;-81
2022/11/20 05:57:42;;;;;;;20.37;11.67;;;0.20;99.90;;;;;;4992242;28;20559;-81
2022/11/20 06:00:09;;;;;;;21.00;11.20;;;0.20;99.90;;;;;;4991914;28;20188;-84
2022/11/20 06:02:35;;;;;;;20.53;11.27;;;0.30;99.90;;;;;;4992711;28;20203;-84
2022/11/20 06:05:01;;;;;;;20.17;11.77;;;0.30;99.90;;;;;;4991970;28;20262;-84
2022/11/20 06:07:26;;;;;;;20.80;11.17;;;0.30;99.90;;;;;;4993234;28;20530;-84
2022/11/20 06:09:52;;;;;;;18.03;10.03;;;0.40;99.90;;;;;;4991966;28;20182;-85
2022/11/20 06:12:17;;;;;;;20.33;11.63;;;0.30;99.90;;;;;;4991990;28;20167;-84
2022/11/20 06:14:43;;;;;;;18.20;10.27;;;0.40;99.90;;;;;;4992260;28;20822;-84
2022/11/20 06:17:09;;;;;;;20.00;10.77;;;0.40;99.90;;;;;;4991930;28;20653;-84
2022/11/20 06:19:34;;;;;;;21.07;11.00;;;0.50;99.90;;;;;;4993400;28;20207;-85
2022/11/20 06:22:00;;;;;;;21.90;11.43;;;0.50;99.90;;;;;;4993726;28;20187;-82
2022/11/20 06:24:25;;;;;;;20.63;11.43;;;0.40;99.90;;;;;;4991902;28;20196;-84
2022/11/20 06:26:51;;;;;;;20.23;11.33;;;0.30;99.90;;;;;;4991765;28;20172;-84
2022/11/20 06:29:16;;;;;;;20.43;11.70;;;0.40;99.90;;;;;;4992883;28;20177;-84
2022/11/20 06:31:42;;;;;;;21.50;11.53;;;0.40;99.90;;;;;;4991870;28;20178;-84
2022/11/20 06:34:08;;;;;;;21.37;12.17;;;0.30;99.90;;;;;;4992103;28;20196;-83
2022/11/20 06:36:34;;;;;;;21.17;11.27;;;0.30;99.90;;;;;;4991731;28;20191;-84
2022/11/20 06:39:00;;;;;;;18.10;9.97;;;0.30;99.90;;;;;;4993155;28;20176;-81
2022/11/20 06:41:26;;;;;;;22.90;11.70;;;0.40;99.90;;;;;;4997517;28;20172;-82
2022/11/20 06:43:51;;;;;;;22.50;12.97;;;1.20;99.90;;;;;;5020992;23;20264;-82
2022/11/20 06:46:19;;;;;;;22.50;12.10;;;1.90;99.90;;;;;;5014688;28;20190;-81
2022/11/20 06:48:46;;;;;;;19.97;10.80;;;2.40;99.90;;;;;;5014132;28;20199;-81
2022/11/20 06:51:13;;;;;;;18.90;11.47;;;2.90;99.90;;;;;;5013011;28;20191;-80
2022/11/20 06:53:38;;;;;;;17.60;10.77;;;3.30;99.90;;;;;;5014525;28;20556;-84
2022/11/20 06:56:05;;;;;;;21.67;12.13;;;2.70;99.90;;;;;;4997406;28;20177;-83
2022/11/20 06:58:32;;;;;;;20.50;11.90;;;2.10;99.90;;;;;;4996684;28;20181;-82
2022/11/20 07:01:03;;;;;;;18.40;10.93;;;1.60;99.90;;;;;;4995447;28;20178;-87
2022/11/20 07:03:29;;;;;;;19.83;11.37;;;1.40;99.90;;;;;;4995781;28;20195;-86
2022/11/20 07:05:56;;;;;;;19.33;11.83;;;1.30;99.90;;;;;;4994594;28;20204;-89
2022/11/20 07:08:22;;;;;;;20.53;11.37;;;1.10;99.90;;;;;;4995382;28;20177;-88
2022/11/20 07:10:47;;;;;;;21.70;12.20;;;1.10;99.90;;;;;;4995728;28;20183;-86
2022/11/20 07:13:13;;;;;;;20.57;11.90;;;1.00;99.90;;;;;;4995689;28;20196;-81
2022/11/20 07:15:39;;;;;;;19.97;12.13;;;0.90;99.90;;;;;;4997083;28;20197;-85
2022/11/20 07:18:05;;;;;;;20.20;11.83;;;0.90;99.90;;;;;;5001086;28;20206;-85
2022/11/20 07:20:30;;;;;;;19.97;12.13;;;0.70;99.90;;;;;;4999814;28;20661;-83
2022/11/20 07:22:57;;;;;;;19.03;11.03;;;0.70;99.90;;;;;;4999364;28;20554;-84
2022/11/20 07:25:24;;;;;;;19.83;11.47;;;0.70;99.90;;;;;;5002578;28;20266;-85
2022/11/20 07:27:49;;;;;;;19.13;11.03;;;0.60;99.90;;;;;;5001982;28;20179;-85
2022/11/20 07:30:16;;;;;;;19.93;11.73;;;0.60;99.90;;;;;;5002979;28;20256;-84
2022/11/20 07:32:41;;;;;;;19.40;10.77;;;0.60;99.90;;;;;;4999780;28;20203;-85
2022/11/20 07:35:07;;;;;;;18.40;11.10;;;0.50;99.90;;;;;;4998763;28;20191;-85
2022/11/20 07:37:36;;;;;;;18.97;10.93;;;0.50;99.90;;;;;;5002789;28;20172;-85
2022/11/20 07:40:02;;;;;;;21.37;11.47;;;0.60;99.90;;;;;;5003583;28;20191;-85
2022/11/20 07:42:28;;;;;;;24.40;12.17;;;0.50;99.90;;;;;;5002109;28;20186;-82
2022/11/20 07:44:53;;;;;;;18.57;11.10;;;0.50;99.90;;;;;;4993733;28;20216;-85
2022/11/20 07:47:19;;;;;;;22.43;11.50;;;0.40;99.90;;;;;;4993978;28;20267;-85
2022/11/20 07:49:44;;;;;;;21.63;12.20;;;0.40;99.90;;;;;;4993988;28;20195;-85
2022/11/20 07:52:10;;;;;;;21.40;12.50;;;0.40;99.90;;;;;;4993720;28;20171;-87
2022/11/20 07:54:35;;;;;;;21.23;12.13;;;0.40;99.90;;;;;;4994626;28;20214;-86
2022/11/20 07:57:01;;;;;;;20.57;12.07;;;0.40;99.90;;;;;;4994358;28;20241;-83
2022/11/20 07:59:27;;;;;;;21.73;12.00;;;0.50;99.90;;;;;;4993515;28;20234;-81
2022/11/20 08:01:52;;;;;;;21.20;12.27;;;0.60;99.90;;;;;;4995359;28;20229;-83
2022/11/20 08:04:18;;;;;;;22.30;12.27;;;0.60;99.90;;;;;;4994949;28;20303;-81
2022/11/20 08:06:43;;;;;;;21.30;11.37;;;0.70;99.90;;;;;;4996381;28;20190;-81
2022/11/20 08:09:09;;;;;;;20.50;11.73;;;0.70;99.90;;;;;;4992552;28;20225;-83
2022/11/20 08:14:32;;;;;;;21.57;12.10;;;0.80;99.90;;;;;;4983602;28;20222;-81
2022/11/20 08:16:59;;;;;;;19.70;10.90;;;0.90;99.90;;;;;;4994240;28;20591;-82
2022/11/20 08:19:24;;;;;;;20.47;11.63;;;1.00;99.90;;;;;;4995602;28;20180;-82
2022/11/20 08:21:50;;;;;;;22.10;11.73;;;1.00;99.90;;;;;;4994641;28;20180;-83
2022/11/20 08:24:15;;;;;;;20.30;11.33;;;1.00;99.90;;;;;;4994263;28;20215;-83
2022/11/20 08:26:41;;;;;;;22.93;12.10;;;1.10;99.90;;;;;;4995060;28;20180;-82
2022/11/20 08:29:07;;;;;;;21.90;12.23;;;1.10;99.90;;;;;;4995381;28;20192;-83
2022/11/20 08:31:32;;;;;;;20.83;11.50;;;1.20;99.90;;;;;;4995292;28;20646;-82
2022/11/20 08:33:58;;;;;;;19.00;11.33;;;1.20;99.90;;;;;;4995007;28;20670;-82
2022/11/20 08:36:24;;;;;;;24.47;12.07;;;1.20;99.90;;;;;;4995909;28;20178;-82
2022/11/20 08:38:52;;;;;;;22.10;11.63;;;1.30;99.90;;;;;;4994640;28;20176;-82
2022/11/20 08:41:23;;;;;;;22.70;12.33;;;1.30;99.90;;;;;;4994469;28;20199;-82
2022/11/20 08:43:56;;;;;;;24.57;13.07;;;1.30;99.90;;;;;;4994249;28;20646;-82
2022/11/20 08:46:23;;;;;;;21.87;12.13;;;1.30;99.90;;;;;;4994562;28;20180;-82
2022/11/20 08:48:48;;;;;;;25.40;13.63;;;1.30;99.90;;;;;;4994833;28;20183;-83
2022/11/20 08:51:14;;;;;;;23.03;12.93;;;1.40;99.90;;;;;;4995703;28;20656;-82
2022/11/20 08:53:40;;;;;;;23.77;12.83;;;1.40;99.90;;;;;;4995625;28;20180;-82
2022/11/20 08:56:06;;;;;;;24.63;14.27;;;1.40;99.90;;;;;;4995806;28;20233;-82
2022/11/20 08:58:32;;;;;;;23.90;12.57;;;1.40;99.90;;;;;;4995574;28;20270;-83
2022/11/20 09:00:57;;;;;;;22.97;12.93;;;1.40;99.90;;;;;;4995590;28;20186;-82
2022/11/20 09:03:23;;;;;;;25.27;13.40;;;1.40;99.90;;;;;;4995751;28;20551;-83
2022/11/20 09:05:49;;;;;;;25.63;12.87;;;1.40;99.90;;;;;;4993781;28;20203;-83
2022/11/20 09:08:15;;;;;;;25.30;13.73;;;1.40;99.90;;;;;;4994844;28;20180;-82
2022/11/20 09:10:40;;;;;;;25.37;13.77;;;1.40;99.90;;;;;;4994777;28;20175;-83
2022/11/20 09:13:07;;;;;;;27.13;14.47;;;1.40;99.90;;;;;;4995769;28;20190;-83
2022/11/20 09:15:33;;;;;;;25.87;14.30;;;1.40;99.90;;;;;;4994334;28;20195;-83
2022/11/20 09:18:01;;;;;;;27.40;14.97;;;1.50;99.90;;;;;;4993747;28;20210;-82
2022/11/20 09:20:28;;;;;;;23.10;12.70;;;1.50;99.90;;;;;;4994518;28;20262;-82
2022/11/20 09:22:54;;;;;;;22.47;12.53;;;1.50;99.90;;;;;;4994352;28;20275;-82
2022/11/20 09:25:20;;;;;;;25.67;13.77;;;1.50;99.90;;;;;;4994280;28;20270;-84
2022/11/20 09:27:46;;;;;;;24.03;12.20;;;1.60;99.90;;;;;;4994991;28;20184;-82
2022/11/20 09:30:15;;;;;;;23.90;11.83;;;1.60;99.90;;;;;;4996621;28;20175;-82
2022/11/20 09:32:42;;;;;;;24.37;12.70;;;1.60;99.90;;;;;;4995270;28;20180;-83
2022/11/20 09:35:08;;;;;;;24.90;12.30;;;1.50;99.90;;;;;;4995824;28;20195;-83
2022/11/20 09:37:34;;;;;;;29.50;15.10;;;1.40;99.90;;;;;;4996612;28;20183;-82
2022/11/20 09:40:00;;;;;;;26.43;14.60;;;1.50;99.90;;;;;;4997587;28;20176;-82
2022/11/20 09:42:40;;;;;;;25.37;13.37;;;1.50;99.90;;;;;;4995266;28;20179;-83
2022/11/20 09:45:21;;;;;;;26.30;14.20;;;1.60;99.90;;;;;;4996604;28;20241;-82
2022/11/20 09:48:14;;;;;;;27.33;13.77;;;1.50;99.90;;;;;;4991599;28;20183;-83
2022/11/20 09:50:47;;;;;;;30.93;15.50;;;1.50;99.90;;;;;;4996930;28;20187;-83
2022/11/20 09:54:12;;;;;;;30.53;16.20;;;1.50;99.90;;;;;;4997112;28;20148;-83
2022/11/20 09:56:41;;;;;;;27.53;14.47;;;1.50;99.90;;;;;;4959810;28;20887;-83
2022/11/20 09:59:14;;;;;;;26.50;14.27;;;1.50;99.90;;;;;;4986587;28;20186;-83
2022/11/20 10:01:40;;;;;;;29.97;14.40;;;1.60;99.90;;;;;;4994893;28;20184;-84
2022/11/20 10:04:13;;;;;;;29.10;14.87;;;1.50;99.90;;;;;;4992547;28;20199;-83
2022/11/20 10:06:55;;;;;;;32.07;16.40;;;1.50;99.90;;;;;;4993954;28;20211;-83
2022/11/20 10:09:37;;;;;;;28.17;14.50;;;1.60;99.90;;;;;;4992725;28;20168;-82
2022/11/20 10:12:22;;;;;;;26.67;13.57;;;1.60;99.90;;;;;;4993445;28;20686;-82
2022/11/20 10:15:21;;;;;;;30.77;14.73;;;1.70;99.90;;;;;;4990707;28;20204;-82
2022/11/20 10:18:04;;;;;;;29.47;14.97;;;1.70;99.90;;;;;;4972814;28;20180;-83
2022/11/20 10:20:52;;;;;;;27.53;14.43;;;1.80;99.90;;;;;;4974357;28;20272;-83
2022/11/20 10:23:30;;;;;;;30.00;13.90;;;1.80;99.90;;;;;;4978084;28;20274;-83
2022/11/20 10:26:12;;;;;;;25.83;13.37;;;1.80;99.90;;;;;;4992108;28;20223;-82
2022/11/20 10:28:53;;;;;;;23.50;12.70;;;1.70;99.90;;;;;;4993921;28;20217;-82
2022/11/20 10:31:40;;;;;;;25.63;13.30;;;1.80;99.90;;;;;;4998308;28;20164;-82
2022/11/20 10:34:16;;;;;;;24.83;12.90;;;1.90;99.90;;;;;;4999141;28;20219;-83
2022/11/20 10:36:58;;;;;;;25.53;12.57;;;1.90;99.90;;;;;;4998821;28;20176;-83
2022/11/20 10:39:52;;;;;;;20.03;10.80;;;2.00;99.90;;;;;;4997581;28;20172;-82
2022/11/20 10:42:37;;;;;;;21.47;11.43;;;1.90;99.90;;;;;;4997769;28;20178;-83
2022/11/20 10:45:31;;;;;;;22.37;11.87;;;2.00;99.90;;;;;;4997931;28;20567;-83
2022/11/20 10:48:09;;;;;;;20.67;11.93;;;2.00;99.90;;;;;;4997729;28;20179;-83
2022/11/20 10:50:37;;;;;;;20.40;11.83;;;2.10;99.90;;;;;;4997249;28;20171;-82
2022/11/20 10:53:17;;;;;;;20.97;11.53;;;2.20;99.90;;;;;;4996576;28;20187;-81
2022/11/20 10:56:05;;;;;;;23.57;11.77;;;2.30;99.90;;;;;;4998944;28;20564;-82
2022/11/20 10:58:31;;;;;;;22.33;11.33;;;2.40;99.90;;;;;;4997597;28;20204;-83
2022/11/20 11:01:05;;;;;;;19.43;10.33;;;2.40;99.90;;;;;;4995300;28;20184;-82
2022/11/20 11:03:31;;;;;;;20.63;10.50;;;2.50;99.90;;;;;;4994616;28;20177;-83
2022/11/20 11:06:06;;;;;;;21.63;11.83;;;2.40;99.90;;;;;;4995357;28;20269;-83
2022/11/20 11:08:38;;;;;;;18.77;10.37;;;2.40;99.90;;;;;;4995495;28;20271;-83
2022/11/20 11:11:33;;;;;;;17.93;10.63;;;2.40;99.90;;;;;;4996692;28;20152;-83
2022/11/20 11:14:13;;;;;;;16.57;9.30;;;2.40;99.90;;;;;;4991193;28;20201;-83
2022/11/20 11:16:50;;;;;;;17.47;9.80;;;2.40;99.90;;;;;;4996811;28;20239;-83
2022/11/20 11:19:16;;;;;;;17.33;9.77;;;2.40;99.90;;;;;;4976976;28;20638;-83
2022/11/20 11:21:51;;;;;;;22.30;11.00;;;2.40;99.90;;;;;;4977072;28;20180;-83
2022/11/20 11:24:28;;;;;;;17.80;9.17;;;2.40;99.90;;;;;;4976843;28;20213;-83
2022/11/20 11:26:58;;;;;;;19.97;10.43;;;2.40;99.90;;;;;;4976851;28;20161;-83
2022/11/20 11:29:26;;;;;;;19.27;10.37;;;2.30;99.90;;;;;;4991702;28;20195;-83
2022/11/20 11:32:04;;;;;;;17.80;8.87;;;2.30;99.90;;;;;;4976773;28;20173;-82
2022/11/20 11:34:29;;;;;;;17.30;9.80;;;2.30;99.90;;;;;;4975522;28;20229;-83
2022/11/20 11:37:00;;;;;;;19.50;9.77;;;2.30;99.90;;;;;;4976907;28;20192;-83
2022/11/20 11:39:28;;;;;;;17.27;9.37;;;2.40;99.90;;;;;;4975242;28;20244;-83
2022/11/20 11:41:54;;;;;;;17.17;9.13;;;2.50;99.90;;;;;;4975020;28;20621;-81
2022/11/20 11:47:46;;;;;;;15.20;8.60;;;2.50;99.90;;;;;;4984850;28;20230;-83
2022/11/20 11:50:12;;;;;;;16.53;9.27;;;2.40;99.90;;;;;;4993727;28;20274;-82
2022/11/20 11:52:50;;;;;;;16.17;8.47;;;2.40;99.90;;;;;;4994271;28;20317;-82
2022/11/20 11:55:29;;;;;;;15.40;8.80;;;2.50;99.90;;;;;;4995618;28;20204;-81
2022/11/20 11:58:18;;;;;;;15.73;9.00;;;2.40;99.90;;;;;;4994283;28;20214;-82
2022/11/20 12:01:05;;;;;;;14.27;8.90;;;2.40;99.90;;;;;;4993968;28;20176;-84
2022/11/20 12:03:41;;;;;;;15.83;8.77;;;2.40;99.90;;;;;;4995807;28;20168;-83
2022/11/20 12:06:12;;;;;;;15.33;8.53;;;2.50;99.90;;;;;;4995278;28;20207;-83
2022/11/20 12:08:47;;;;;;;14.43;7.80;;;2.50;99.90;;;;;;4994773;28;20540;-82
2022/11/20 12:11:19;;;;;;;13.33;8.10;;;2.50;99.90;;;;;;4993799;28;20255;-82
2022/11/20 12:13:55;;;;;;;12.63;7.43;;;2.50;99.90;;;;;;4993931;28;20171;-82
2022/11/20 12:16:21;;;;;;;14.67;8.63;;;2.60;99.90;;;;;;4993758;28;20161;-86
2022/11/20 12:18:50;;;;;;;14.13;8.00;;;2.70;99.90;;;;;;4995273;28;20187;-84
2022/11/20 12:21:41;;;;;;;13.20;8.30;;;2.70;99.90;;;;;;4995836;28;20636;-83
2022/11/20 12:24:42;;;;;;;12.17;6.90;;;2.70;99.90;;;;;;4994059;28;20212;-83
2022/11/20 12:27:46;;;;;;;12.23;7.20;;;2.80;99.90;;;;;;4994570;28;20174;-83
2022/11/20 12:30:16;;;;;;;13.20;6.97;;;2.80;99.90;;;;;;4993577;28;20714;-84
2022/11/20 12:33:19;;;;;;;13.07;6.70;;;2.80;99.90;;;;;;4974967;28;20570;-83
2022/11/20 12:35:56;;;;;;;12.17;6.77;;;2.80;99.90;;;;;;4976229;28;20196;-83
2022/11/20 12:38:51;;;;;;;11.27;6.60;;;2.80;99.90;;;;;;4975989;28;20180;-83
2022/11/20 12:47:33;;;;;;;10.60;6.43;;;2.70;99.90;;;;;;5013188;28;20175;-81
2022/11/20 12:50:36;;;;;;;10.43;5.90;;;2.60;99.90;;;;;;4992711;28;20294;-81
2022/11/20 12:53:33;;;;;;;11.33;6.27;;;2.60;99.90;;;;;;5011949;28;20179;-81
2022/11/20 12:56:28;;;;;;;11.93;6.37;;;2.60;99.90;;;;;;4997864;28;20196;-81
2022/11/20 12:59:16;;;;;;;11.57;7.10;;;2.70;99.90;;;;;;4993933;28;20526;-81
2022/11/20 13:01:50;;;;;;;11.80;6.70;;;2.70;99.90;;;;;;4991138;28;20244;-81
2022/11/20 13:04:49;;;;;;;16.80;9.10;;;2.70;99.90;;;;;;5010837;28;20645;-81
2022/11/20 13:07:17;;;;;;;11.83;7.00;;;2.60;99.90;;;;;;5014312;28;20180;-81